Time;durP1;ratioP1;P1;durP2;ratioP2;P2;SDS_P1;SDS_P2;PMS_P1;PMS_P2;Temp;Humidity;BMP_temperature;BMP_pressure;BME280_temperature;BME280_humidity;BME280_pressure;Samples;Min_cycle;Max_cycle;Signal;HPM_P1;HPM_P2
2021/09/06 00:01:04;;;;;;;33.10;20.23;;;;;;;;;;5104148;28;20052;-80
2021/09/06 00:03:31;;;;;;;30.95;18.25;;;;;;;;;;5076573;28;20264;-79
2021/09/06 00:05:58;;;;;;;34.45;19.75;;;;;;;;;;5064300;28;20066;-79
2021/09/06 00:08:25;;;;;;;35.70;20.08;;;;;;;;;;5066840;28;20070;-80
2021/09/06 00:11:04;;;;;;;38.85;20.48;;;;;;;;;;5079981;28;20057;-80
2021/09/06 00:13:31;;;;;;;31.23;19.13;;;;;;;;;;5074757;28;20056;-80
2021/09/06 00:15:58;;;;;;;37.75;18.40;;;;;;;;;;5064863;28;20063;-81
2021/09/06 00:18:25;;;;;;;31.00;18.55;;;;;;;;;;5063836;28;20111;-80
2021/09/06 00:20:52;;;;;;;30.25;18.42;;;;;;;;;;5096143;28;20080;-80
2021/09/06 00:23:19;;;;;;;31.38;18.75;;;;;;;;;;5074291;28;20044;-80
2021/09/06 00:25:46;;;;;;;34.22;19.88;;;;;;;;;;5064584;28;20059;-79
2021/09/06 00:28:13;;;;;;;32.50;19.33;;;;;;;;;;5079933;28;20105;-79
2021/09/06 00:30:39;;;;;;;33.05;19.83;;;;;;;;;;5081991;28;20108;-79
2021/09/06 00:33:06;;;;;;;40.05;18.83;;;;;;;;;;5079106;28;20080;-79
2021/09/06 00:35:33;;;;;;;34.60;20.83;;;;;;;;;;5079426;28;20049;-79
2021/09/06 00:38:00;;;;;;;38.38;21.90;;;;;;;;;;5079563;28;20071;-79
2021/09/06 00:40:27;;;;;;;44.17;21.98;;;;;;;;;;5080107;28;20059;-79
2021/09/06 00:42:53;;;;;;;37.50;20.60;;;;;;;;;;5061848;28;20182;-81
2021/09/06 00:45:20;;;;;;;38.03;22.80;;;;;;;;;;5062941;28;20048;-80
2021/09/06 00:47:46;;;;;;;37.10;21.48;;;;;;;;;;5079417;28;20055;-78
2021/09/06 00:50:14;;;;;;;37.83;20.80;;;;;;;;;;5078158;28;20060;-78
2021/09/06 00:52:45;;;;;;;42.53;22.20;;;;;;;;;;5091383;28;20393;-79
2021/09/06 00:55:12;;;;;;;34.90;21.98;;;;;;;;;;5080553;28;20051;-79
2021/09/06 00:57:39;;;;;;;36.97;20.02;;;;;;;;;;5097559;28;20121;-79
2021/09/06 01:00:07;;;;;;;35.35;19.65;;;;;;;;;;5097534;28;20079;-80
2021/09/06 01:02:34;;;;;;;32.65;18.42;;;;;;;;;;5095870;28;20074;-80
2021/09/06 01:05:01;;;;;;;30.85;17.42;;;;;;;;;;5097999;28;20076;-80
2021/09/06 01:07:29;;;;;;;33.63;19.45;;;;;;;;;;5112701;28;20052;-80
2021/09/06 01:09:55;;;;;;;38.10;21.95;;;;;;;;;;5097759;28;20044;-80
2021/09/06 01:12:22;;;;;;;40.42;20.90;;;;;;;;;;5075651;28;20053;-80
2021/09/06 01:14:49;;;;;;;34.53;20.75;;;;;;;;;;5077797;28;20064;-80
2021/09/06 01:17:18;;;;;;;36.70;21.08;;;;;;;;;;5076888;28;20098;-80
2021/09/06 01:19:44;;;;;;;33.22;19.50;;;;;;;;;;5076785;28;20284;-79
2021/09/06 01:22:11;;;;;;;32.55;18.73;;;;;;;;;;5082734;28;20060;-79
2021/09/06 01:24:46;;;;;;;33.60;19.15;;;;;;;;;;5079788;28;20048;-79
2021/09/06 01:27:14;;;;;;;35.60;20.55;;;;;;;;;;5078857;28;20121;-80
2021/09/06 01:29:40;;;;;;;30.75;18.23;;;;;;;;;;5078757;28;20060;-80
2021/09/06 01:32:07;;;;;;;36.42;20.88;;;;;;;;;;5076972;28;20057;-80
2021/09/06 01:34:58;;;;;;;34.45;20.40;;;;;;;;;;5078501;28;20059;-80
2021/09/06 01:37:25;;;;;;;32.60;20.67;;;;;;;;;;5077221;28;20412;-81
2021/09/06 01:39:55;;;;;;;35.40;21.42;;;;;;;;;;5079682;28;20058;-80
2021/09/06 01:42:22;;;;;;;31.92;18.95;;;;;;;;;;5080114;28;20093;-80
2021/09/06 01:44:49;;;;;;;38.00;21.33;;;;;;;;;;5081791;28;20090;-80
2021/09/06 01:47:15;;;;;;;35.13;20.98;;;;;;;;;;5094813;28;20048;-80
2021/09/06 01:49:42;;;;;;;43.40;22.40;;;;;;;;;;5102525;28;20479;-78
2021/09/06 01:52:09;;;;;;;40.53;21.73;;;;;;;;;;5103025;28;20048;-80
2021/09/06 01:54:36;;;;;;;38.03;21.00;;;;;;;;;;5097230;28;20047;-80
2021/09/06 01:57:03;;;;;;;42.13;21.63;;;;;;;;;;5101551;28;20056;-80
2021/09/06 01:59:29;;;;;;;37.17;20.88;;;;;;;;;;5102148;28;20363;-80
2021/09/06 02:01:56;;;;;;;35.85;20.40;;;;;;;;;;5097451;28;20048;-80
2021/09/06 02:04:24;;;;;;;33.78;19.52;;;;;;;;;;5096016;28;20051;-80
2021/09/06 02:06:51;;;;;;;34.00;19.45;;;;;;;;;;5097280;28;20056;-80
2021/09/06 02:09:19;;;;;;;31.73;19.63;;;;;;;;;;5096375;28;20043;-80
2021/09/06 02:11:46;;;;;;;31.08;18.77;;;;;;;;;;5095023;28;20118;-78
2021/09/06 02:14:12;;;;;;;41.97;22.35;;;;;;;;;;5096519;28;20110;-78
2021/09/06 02:16:39;;;;;;;39.30;21.63;;;;;;;;;;5097255;28;20040;-78
2021/09/06 02:19:06;;;;;;;42.38;22.00;;;;;;;;;;5096207;28;20428;-79
2021/09/06 02:21:33;;;;;;;39.47;22.17;;;;;;;;;;5096544;28;20095;-79
2021/09/06 02:24:04;;;;;;;40.03;22.92;;;;;;;;;;5095684;28;20061;-79
2021/09/06 02:26:36;;;;;;;40.90;22.58;;;;;;;;;;5095581;28;20052;-79
2021/09/06 02:29:04;;;;;;;37.85;20.20;;;;;;;;;;5096968;28;20056;-80
2021/09/06 02:31:33;;;;;;;35.65;21.20;;;;;;;;;;5097301;28;20074;-79
2021/09/06 02:34:04;;;;;;;38.38;21.38;;;;;;;;;;5095622;28;20056;-80
2021/09/06 02:36:30;;;;;;;34.40;21.52;;;;;;;;;;5096990;28;20090;-79
2021/09/06 02:38:57;;;;;;;37.78;21.13;;;;;;;;;;5095873;28;20048;-80
2021/09/06 02:41:31;;;;;;;35.60;21.05;;;;;;;;;;5095524;28;20040;-79
2021/09/06 02:44:01;;;;;;;34.60;20.90;;;;;;;;;;5095602;28;20135;-79
2021/09/06 02:46:31;;;;;;;35.08;21.27;;;;;;;;;;5096116;28;20058;-79
2021/09/06 02:48:57;;;;;;;40.30;20.40;;;;;;;;;;5093492;28;20082;-79
2021/09/06 02:51:30;;;;;;;38.33;20.70;;;;;;;;;;5098510;28;20107;-79
2021/09/06 02:54:01;;;;;;;32.92;18.55;;;;;;;;;;5104048;28;20143;-79
2021/09/06 02:56:30;;;;;;;30.80;17.80;;;;;;;;;;5132438;28;20048;-79
2021/09/06 02:58:58;;;;;;;32.70;18.45;;;;;;;;;;5117733;28;20090;-78
2021/09/06 03:01:24;;;;;;;33.72;18.50;;;;;;;;;;5104629;28;20122;-79
2021/09/06 03:03:52;;;;;;;39.13;20.80;;;;;;;;;;5102358;28;20090;-78
2021/09/06 03:06:21;;;;;;;36.70;21.08;;;;;;;;;;5119793;28;20052;-79
2021/09/06 03:08:48;;;;;;;35.35;20.30;;;;;;;;;;5102416;28;20363;-79
2021/09/06 03:11:14;;;;;;;31.70;19.98;;;;;;;;;;5103012;28;20043;-79
2021/09/06 03:13:41;;;;;;;35.22;19.85;;;;;;;;;;5102825;28;20116;-78
2021/09/06 03:16:08;;;;;;;33.97;19.10;;;;;;;;;;5103390;28;20048;-79
2021/09/06 03:18:34;;;;;;;34.38;18.42;;;;;;;;;;5120986;28;20027;-79
2021/09/06 03:21:01;;;;;;;33.70;18.65;;;;;;;;;;5138461;28;20044;-79
2021/09/06 03:23:27;;;;;;;39.33;20.30;;;;;;;;;;5104878;28;20138;-79
2021/09/06 03:25:55;;;;;;;35.17;18.85;;;;;;;;;;5122521;28;20276;-80
2021/09/06 03:28:22;;;;;;;30.80;17.17;;;;;;;;;;5109173;28;20667;-80
2021/09/06 03:30:49;;;;;;;30.70;18.58;;;;;;;;;;5119736;28;20095;-79
2021/09/06 03:33:16;;;;;;;37.55;19.15;;;;;;;;;;5123012;28;20052;-79
2021/09/06 03:35:43;;;;;;;33.42;18.15;;;;;;;;;;5103370;28;20303;-81
2021/09/06 03:38:11;;;;;;;31.13;18.17;;;;;;;;;;5102000;28;20055;-79
2021/09/06 03:40:37;;;;;;;33.30;19.05;;;;;;;;;;5102425;28;20051;-79
2021/09/06 03:43:08;;;;;;;33.15;19.63;;;;;;;;;;5120750;28;20047;-79
2021/09/06 03:45:37;;;;;;;32.95;19.20;;;;;;;;;;5103902;28;20150;-79
2021/09/06 03:48:03;;;;;;;30.90;19.23;;;;;;;;;;5103005;28;20101;-79
2021/09/06 03:50:30;;;;;;;40.00;19.80;;;;;;;;;;5120442;28;20412;-81
2021/09/06 03:52:57;;;;;;;34.63;19.42;;;;;;;;;;5094574;28;20087;-81
2021/09/06 03:55:24;;;;;;;30.40;18.30;;;;;;;;;;5099803;28;20043;-79
2021/09/06 03:57:56;;;;;;;28.95;17.17;;;;;;;;;;5099145;28;20052;-78
2021/09/06 04:00:22;;;;;;;34.97;18.33;;;;;;;;;;5096486;28;20056;-79
2021/09/06 04:02:53;;;;;;;32.70;17.90;;;;;;;;;;5080616;28;20047;-79
2021/09/06 04:05:19;;;;;;;34.42;18.40;;;;;;;;;;5080152;28;20048;-79
2021/09/06 04:07:46;;;;;;;29.75;18.27;;;;;;;;;;5097955;28;20048;-79
2021/09/06 04:10:15;;;;;;;38.75;18.83;;;;;;;;;;5099381;28;20503;-80
2021/09/06 04:12:41;;;;;;;29.92;18.52;;;;;;;;;;5098568;28;20469;-80
2021/09/06 04:15:09;;;;;;;30.55;19.42;;;;;;;;;;5098882;28;20133;-80
2021/09/06 04:17:37;;;;;;;34.17;17.77;;;;;;;;;;5111383;28;20047;-80
2021/09/06 04:20:04;;;;;;;34.55;19.15;;;;;;;;;;5100039;28;20400;-80
2021/09/06 04:22:32;;;;;;;32.38;18.25;;;;;;;;;;5099870;28;20063;-82
2021/09/06 04:25:09;;;;;;;28.15;16.88;;;;;;;;;;5103269;28;20094;-79
2021/09/06 04:27:36;;;;;;;31.98;17.90;;;;;;;;;;5123842;28;20063;-79
2021/09/06 04:30:03;;;;;;;31.48;17.58;;;;;;;;;;5118514;28;20545;-78
2021/09/06 04:32:30;;;;;;;28.67;17.27;;;;;;;;;;5084413;28;20117;-79
2021/09/06 04:34:57;;;;;;;29.60;17.35;;;;;;;;;;5098141;28;20086;-79
2021/09/06 04:37:24;;;;;;;27.75;16.75;;;;;;;;;;5111585;28;20071;-79
2021/09/06 04:39:51;;;;;;;27.10;16.38;;;;;;;;;;5109433;28;20136;-80
2021/09/06 04:42:18;;;;;;;30.95;15.15;;;;;;;;;;5082651;28;20066;-79
2021/09/06 04:44:44;;;;;;;23.67;14.10;;;;;;;;;;5110330;28;20098;-80
2021/09/06 04:47:11;;;;;;;23.52;14.00;;;;;;;;;;5111029;28;20393;-78
2021/09/06 04:49:38;;;;;;;26.13;13.25;;;;;;;;;;5113418;28;20094;-79
2021/09/06 04:52:25;;;;;;;23.33;13.65;;;;;;;;;;5114623;28;20370;-79
2021/09/06 04:54:51;;;;;;;26.27;14.57;;;;;;;;;;5093655;28;20082;-80
2021/09/06 04:57:19;;;;;;;23.95;14.00;;;;;;;;;;5091741;28;20086;-80
2021/09/06 04:59:45;;;;;;;25.52;14.32;;;;;;;;;;5091834;28;20058;-80
2021/09/06 05:02:18;;;;;;;22.73;14.40;;;;;;;;;;5089975;28;20300;-80
2021/09/06 05:04:45;;;;;;;24.88;15.43;;;;;;;;;;5090682;28;20546;-79
2021/09/06 05:07:12;;;;;;;21.00;15.73;;;;;;;;;;5089168;28;20117;-80
2021/09/06 05:09:39;;;;;;;20.95;15.45;;;;;;;;;;5089407;28;20059;-79
2021/09/06 05:12:05;;;;;;;22.33;16.40;;;;;;;;;;5081700;28;20044;-79
2021/09/06 05:14:32;;;;;;;24.73;15.52;;;;;;;;;;5088398;28;20118;-80
2021/09/06 05:17:02;;;;;;;19.95;15.25;;;;;;;;;;5095201;28;20115;-80
2021/09/06 05:19:29;;;;;;;20.95;14.07;;;;;;;;;;5095623;28;20078;-80
2021/09/06 05:21:56;;;;;;;15.93;13.77;;;;;;;;;;5090383;28;20422;-79
2021/09/06 05:24:22;;;;;;;15.55;12.27;;;;;;;;;;5089389;28;20048;-79
2021/09/06 05:26:49;;;;;;;18.45;12.07;;;;;;;;;;5090251;28;20291;-80
2021/09/06 05:29:16;;;;;;;19.80;12.77;;;;;;;;;;5070787;28;20244;-79
2021/09/06 05:31:43;;;;;;;16.00;11.65;;;;;;;;;;5091015;28;20047;-80
2021/09/06 05:34:10;;;;;;;11.95;9.60;;;;;;;;;;5090498;28;20161;-79
2021/09/06 05:36:41;;;;;;;10.50;8.55;;;;;;;;;;5081645;28;20044;-82
2021/09/06 05:39:11;;;;;;;10.40;7.60;;;;;;;;;;5089024;28;20308;-79
2021/09/06 05:41:45;;;;;;;8.88;6.72;;;;;;;;;;5087156;28;20062;-80
2021/09/06 05:44:11;;;;;;;9.95;7.07;;;;;;;;;;5083628;28;20287;-79
2021/09/06 05:46:42;;;;;;;8.48;5.88;;;;;;;;;;5086248;28;20179;-80
2021/09/06 05:49:09;;;;;;;8.23;6.25;;;;;;;;;;5087417;28;20213;-80
2021/09/06 05:51:35;;;;;;;8.43;6.22;;;;;;;;;;5087167;28;20251;-81
2021/09/06 05:54:02;;;;;;;8.30;6.32;;;;;;;;;;5089351;28;20120;-81
2021/09/06 05:56:29;;;;;;;8.57;6.80;;;;;;;;;;5092439;28;20086;-81
2021/09/06 05:59:00;;;;;;;7.85;5.70;;;;;;;;;;5070992;28;20040;-80
2021/09/06 06:01:26;;;;;;;7.35;5.55;;;;;;;;;;5087159;28;20036;-80
2021/09/06 06:03:53;;;;;;;7.10;5.47;;;;;;;;;;5120283;27;20036;-82
2021/09/06 06:06:21;;;;;;;7.72;5.05;;;;;;;;;;5081442;28;20416;-82
2021/09/06 06:08:56;;;;;;;5.75;4.80;;;;;;;;;;5107041;28;20055;-82
2021/09/06 06:11:23;;;;;;;;;;;;;;;;;;5107942;28;20039;-81
2021/09/06 06:13:50;;;;;;;10.98;5.57;;;;;;;;;;5095721;28;20171;-81
2021/09/06 06:16:17;;;;;;;10.68;5.85;;;;;;;;;;5073428;28;20056;-81
2021/09/06 06:18:44;;;;;;;7.85;4.97;;;;;;;;;;5103426;28;20056;-81
2021/09/06 06:21:10;;;;;;;12.65;5.55;;;;;;;;;;5088911;28;20329;-81
2021/09/06 06:23:40;;;;;;;8.07;5.82;;;;;;;;;;5104231;28;20150;-81
2021/09/06 06:26:07;;;;;;;7.57;5.13;;;;;;;;;;5090863;28;20266;-81
2021/09/06 06:28:34;;;;;;;6.85;5.15;;;;;;;;;;5117218;28;20044;-81
2021/09/06 06:31:01;;;;;;;11.07;7.50;;;;;;;;;;5103155;28;20042;-81
2021/09/06 06:33:29;;;;;;;10.60;6.35;;;;;;;;;;5103908;28;20632;-81
2021/09/06 06:35:57;;;;;;;8.90;6.18;;;;;;;;;;5097969;28;20121;-82
2021/09/06 06:38:28;;;;;;;9.70;6.63;;;;;;;;;;5076649;28;20369;-81
2021/09/06 06:40:55;;;;;;;13.40;7.38;;;;;;;;;;5091616;28;20292;-82
2021/09/06 06:43:21;;;;;;;17.27;8.32;;;;;;;;;;5102143;28;20048;-84
2021/09/06 06:45:49;;;;;;;16.02;8.93;;;;;;;;;;5071039;28;20063;-81
2021/09/06 06:48:15;;;;;;;16.50;11.02;;;;;;;;;;5089218;28;20121;-81
2021/09/06 06:50:42;;;;;;;21.75;11.23;;;;;;;;;;5071224;28;20121;-82
2021/09/06 06:53:09;;;;;;;19.10;10.45;;;;;;;;;;5089179;28;20409;-80
2021/09/06 06:55:36;;;;;;;22.38;10.93;;;;;;;;;;5090342;28;20051;-82
2021/09/06 06:58:04;;;;;;;21.58;9.88;;;;;;;;;;5082874;28;20055;-81
2021/09/06 07:00:31;;;;;;;15.93;9.80;;;;;;;;;;5107679;28;20075;-81
2021/09/06 07:03:01;;;;;;;22.88;10.90;;;;;;;;;;5075532;28;20056;-80
2021/09/06 07:05:29;;;;;;;19.88;10.73;;;;;;;;;;5089370;28;20044;-81
2021/09/06 07:07:56;;;;;;;21.67;10.45;;;;;;;;;;5109475;28;20130;-81
2021/09/06 07:10:32;;;;;;;16.63;10.20;;;;;;;;;;5111017;28;20364;-81
2021/09/06 07:13:02;;;;;;;23.67;10.95;;;;;;;;;;5093213;28;20051;-82
2021/09/06 07:15:32;;;;;;;19.02;10.95;;;;;;;;;;5077573;28;20051;-80
2021/09/06 07:17:59;;;;;;;14.90;10.25;;;;;;;;;;5074191;28;20206;-81
2021/09/06 07:20:27;;;;;;;17.25;11.13;;;;;;;;;;5075678;28;20098;-81
2021/09/06 07:22:54;;;;;;;14.65;10.07;;;;;;;;;;5099670;28;20090;-81
2021/09/06 07:25:21;;;;;;;17.80;10.63;;;;;;;;;;5091320;28;20108;-82
2021/09/06 07:27:59;;;;;;;18.13;11.02;;;;;;;;;;5095309;28;20249;-82
2021/09/06 07:30:33;;;;;;;14.93;10.13;;;;;;;;;;5110480;28;20111;-81
2021/09/06 07:33:05;;;;;;;18.42;11.38;;;;;;;;;;5103191;28;20052;-80
2021/09/06 07:35:38;;;;;;;16.33;10.95;;;;;;;;;;5084608;28;20148;-82
2021/09/06 07:38:04;;;;;;;19.17;10.80;;;;;;;;;;5100152;28;20059;-81
2021/09/06 07:40:31;;;;;;;19.85;12.50;;;;;;;;;;5087086;28;20085;-81
2021/09/06 07:43:01;;;;;;;19.70;12.65;;;;;;;;;;5097615;28;20067;-83
2021/09/06 07:45:33;;;;;;;21.70;12.55;;;;;;;;;;5093071;28;20131;-82
2021/09/06 07:48:00;;;;;;;23.02;12.90;;;;;;;;;;5095564;28;20043;-82
2021/09/06 07:50:30;;;;;;;19.73;12.90;;;;;;;;;;5096706;28;20211;-83
2021/09/06 07:52:57;;;;;;;20.35;13.68;;;;;;;;;;5097298;28;20044;-82
2021/09/06 07:55:24;;;;;;;16.40;11.85;;;;;;;;;;5116788;28;20070;-82
2021/09/06 07:58:02;;;;;;;16.20;10.90;;;;;;;;;;5130393;27;20157;-82
2021/09/06 08:00:29;;;;;;;18.05;11.90;;;;;;;;;;5118955;28;20051;-82
2021/09/06 08:02:57;;;;;;;17.75;12.52;;;;;;;;;;5120699;28;20053;-82
2021/09/06 08:05:26;;;;;;;23.98;14.27;;;;;;;;;;5102165;28;20094;-81
2021/09/06 08:07:53;;;;;;;20.65;12.38;;;;;;;;;;5089120;28;20080;-83
2021/09/06 08:10:21;;;;;;;20.13;13.02;;;;;;;;;;5080426;28;20047;-83
2021/09/06 08:13:04;;;;;;;20.77;12.57;;;;;;;;;;5103965;28;20262;-81
2021/09/06 08:16:04;;;;;;;19.58;12.57;;;;;;;;;;5119363;28;20043;-82
2021/09/06 08:18:47;;;;;;;22.30;12.75;;;;;;;;;;5115870;28;20404;-83
2021/09/06 08:21:56;;;;;;;21.20;13.48;;;;;;;;;;5054857;28;20136;-83
2021/09/06 08:24:40;;;;;;;18.50;12.52;;;;;;;;;;5046324;28;20407;-82
2021/09/06 08:27:44;;;;;;;;;;;;;;;;;;;;;
2021/09/06 08:30:30;;;;;;;18.40;12.25;;;;;;;;;;5046480;28;20301;-84
2021/09/06 08:36:42;;;;;;;18.60;11.43;;;;;;;;;;5058852;28;20284;-83
2021/09/06 08:39:25;;;;;;;18.20;11.68;;;;;;;;;;5068476;28;20402;-83
2021/09/06 08:42:01;;;;;;;16.85;11.52;;;;;;;;;;5067892;28;20048;-83
2021/09/06 08:44:43;;;;;;;20.92;13.20;;;;;;;;;;5035962;28;20344;-83
2021/09/06 08:47:20;;;;;;;16.10;11.32;;;;;;;;;;5110298;28;20214;-82
2021/09/06 08:50:17;;;;;;;16.08;11.20;;;;;;;;;;5080110;28;20079;-83
2021/09/06 08:53:16;;;;;;;19.92;11.15;;;;;;;;;;5099870;28;20043;-82
2021/09/06 08:56:07;;;;;;;16.05;10.75;;;;;;;;;;5136419;27;20055;-82
2021/09/06 08:59:00;;;;;;;14.90;10.07;;;;;;;;;;5112333;28;20328;-82
2021/09/06 09:01:44;;;;;;;20.65;11.88;;;;;;;;;;5126045;27;20050;-83
2021/09/06 09:04:43;;;;;;;18.33;10.90;;;;;;;;;;5118889;28;20058;-84
2021/09/06 09:10:53;;;;;;;22.35;13.07;;;;;;;;;;5106488;27;20051;-83
2021/09/06 09:13:41;;;;;;;17.83;12.60;;;;;;;;;;5129633;27;20204;-82
2021/09/06 09:16:40;;;;;;;18.70;12.07;;;;;;;;;;5102002;28;20055;-81
2021/09/06 09:19:34;;;;;;;;;;;;;;;;;;;;;
2021/09/06 09:22:43;;;;;;;24.67;13.50;;;;;;;;;;5115241;28;20071;-83
2021/09/06 09:25:18;;;;;;;18.63;10.70;;;;;;;;;;5108341;27;20209;-82
2021/09/06 09:28:14;;;;;;;16.10;11.02;;;;;;;;;;5129674;27;20039;-82
2021/09/06 09:30:41;;;;;;;19.45;13.23;;;;;;;;;;5097470;28;20089;-83
2021/09/06 09:33:10;;;;;;;20.30;11.13;;;;;;;;;;5093409;28;20403;-83
2021/09/06 09:35:48;;;;;;;15.95;11.30;;;;;;;;;;5118515;28;20107;-82
2021/09/06 09:38:15;;;;;;;17.42;10.65;;;;;;;;;;5112179;28;20108;-82
2021/09/06 09:40:46;;;;;;;14.85;10.43;;;;;;;;;;5127863;27;20069;-82
2021/09/06 09:43:13;;;;;;;16.17;9.30;;;;;;;;;;5110137;27;20036;-82
2021/09/06 09:45:40;;;;;;;18.85;10.63;;;;;;;;;;5092845;28;20052;-82
2021/09/06 09:48:08;;;;;;;17.05;9.95;;;;;;;;;;5111602;28;20446;-82
2021/09/06 09:50:35;;;;;;;13.35;8.02;;;;;;;;;;5119486;27;20115;-83
2021/09/06 09:53:03;;;;;;;16.00;9.73;;;;;;;;;;5111539;28;20090;-83
2021/09/06 09:55:34;;;;;;;18.40;10.15;;;;;;;;;;5100722;28;20052;-83
2021/09/06 09:58:02;;;;;;;16.77;10.30;;;;;;;;;;5071967;28;20063;-83
2021/09/06 10:00:29;;;;;;;16.25;10.05;;;;;;;;;;5070464;28;20041;-83
2021/09/06 10:03:01;;;;;;;18.40;10.40;;;;;;;;;;5087630;28;20470;-84
2021/09/06 10:05:34;;;;;;;20.52;10.32;;;;;;;;;;5076090;28;20048;-83
2021/09/06 10:08:03;;;;;;;15.43;10.13;;;;;;;;;;5090383;28;20158;-82
2021/09/06 10:10:35;;;;;;;18.30;10.77;;;;;;;;;;5090636;28;20129;-81
2021/09/06 10:13:06;;;;;;;16.85;10.68;;;;;;;;;;5091943;28;20147;-84
2021/09/06 10:15:36;;;;;;;16.75;10.02;;;;;;;;;;5104497;28;20111;-82
2021/09/06 10:18:42;;;;;;;17.35;10.18;;;;;;;;;;5100472;28;20047;-84
2021/09/06 10:21:16;;;;;;;13.98;7.97;;;;;;;;;;5091851;28;20048;-82
2021/09/06 10:23:44;;;;;;;12.63;8.40;;;;;;;;;;5091860;28;20075;-82
2021/09/06 10:26:15;;;;;;;11.18;7.55;;;;;;;;;;5091449;28;20098;-83
2021/09/06 10:28:47;;;;;;;11.82;8.35;;;;;;;;;;5093547;28;20058;-84
2021/09/06 10:31:28;;;;;;;12.85;9.00;;;;;;;;;;5084384;28;20111;-83
2021/09/06 10:34:04;;;;;;;13.15;8.80;;;;;;;;;;5112007;28;20047;-83
2021/09/06 10:36:45;;;;;;;12.60;8.50;;;;;;;;;;5113101;28;20052;-82
2021/09/06 10:39:23;;;;;;;15.80;9.38;;;;;;;;;;5121264;28;20073;-82
2021/09/06 10:42:01;;;;;;;14.95;8.82;;;;;;;;;;5127224;27;20031;-83
2021/09/06 10:44:38;;;;;;;13.77;8.48;;;;;;;;;;5129614;27;20119;-82
2021/09/06 10:47:23;;;;;;;12.85;8.50;;;;;;;;;;5085772;28;20387;-84
2021/09/06 10:49:54;;;;;;;17.30;8.10;;;;;;;;;;5069925;28;20066;-83
2021/09/06 10:52:24;;;;;;;12.32;6.70;;;;;;;;;;5077976;28;20680;-83
2021/09/06 10:54:59;;;;;;;12.90;7.00;;;;;;;;;;5072748;28;20087;-83
2021/09/06 10:57:35;;;;;;;10.38;6.18;;;;;;;;;;5068691;28;20102;-82
2021/09/06 11:00:02;;;;;;;9.82;5.20;;;;;;;;;;5102492;28;20254;-83
2021/09/06 11:02:30;;;;;;;8.05;5.95;;;;;;;;;;5078393;28;20240;-84
2021/09/06 11:04:57;;;;;;;11.02;6.40;;;;;;;;;;5065548;28;20058;-83
2021/09/06 11:07:34;;;;;;;8.80;5.10;;;;;;;;;;5075048;28;20048;-84
2021/09/06 11:10:15;;;;;;;7.25;4.53;;;;;;;;;;5086079;28;20040;-82
2021/09/06 11:13:05;;;;;;;9.40;5.40;;;;;;;;;;5085890;28;20240;-83
2021/09/06 11:15:37;;;;;;;11.77;7.00;;;;;;;;;;5093370;28;20284;-82
2021/09/06 11:18:20;;;;;;;13.65;6.57;;;;;;;;;;5075303;28;20048;-83
2021/09/06 11:20:55;;;;;;;11.45;6.82;;;;;;;;;;5087232;28;20215;-82
2021/09/06 11:24:00;;;;;;;12.48;7.20;;;;;;;;;;5086309;28;20414;-83
2021/09/06 11:26:50;;;;;;;8.63;6.28;;;;;;;;;;5036879;28;20093;-83
2021/09/06 11:29:41;;;;;;;10.07;7.15;;;;;;;;;;5087194;28;20072;-83
2021/09/06 11:32:17;;;;;;;13.15;6.82;;;;;;;;;;5088859;28;20048;-82
2021/09/06 11:35:18;;;;;;;;;;;;;;;;;;;;;
2021/09/06 11:37:57;;;;;;;12.23;6.97;;;;;;;;;;5094259;28;20036;-83
2021/09/06 11:40:34;;;;;;;10.07;7.07;;;;;;;;;;5102652;28;20060;-84
2021/09/06 11:43:28;;;;;;;;;;;;;;;;;;;;;
2021/09/06 11:49:54;;;;;;;10.80;5.70;;;;;;;;;;5111647;28;20040;-84
2021/09/06 11:52:56;;;;;;;10.10;5.90;;;;;;;;;;5109300;28;20051;-86
2021/09/06 11:55:30;;;;;;;10.15;5.50;;;;;;;;;;5134697;27;20127;-83
2021/09/06 11:58:19;;;;;;;5.85;3.85;;;;;;;;;;5092069;28;20110;-83
2021/09/06 12:01:14;;;;;;;4.95;3.50;;;;;;;;;;5118333;27;20057;-83
2021/09/06 12:03:52;;;;;;;6.20;4.43;;;;;;;;;;5100458;27;20447;-84
2021/09/06 12:06:26;;;;;;;8.63;5.13;;;;;;;;;;5101568;28;20102;-83
2021/09/06 12:09:01;;;;;;;7.78;4.80;;;;;;;;;;5092189;28;20148;-84
2021/09/06 12:11:51;;;;;;;8.20;5.97;;;;;;;;;;5093065;28;20059;-83
2021/09/06 12:14:44;;;;;;;11.02;5.28;;;;;;;;;;5103768;28;20199;-84
2021/09/06 12:17:14;;;;;;;11.25;5.65;;;;;;;;;;5096880;28;20229;-83
2021/09/06 12:20:08;;;;;;;8.77;5.22;;;;;;;;;;5075938;28;20044;-83
2021/09/06 12:22:41;;;;;;;9.90;5.47;;;;;;;;;;5091649;28;20067;-83
2021/09/06 12:25:23;;;;;;;10.35;5.80;;;;;;;;;;5074544;28;20580;-83
2021/09/06 12:28:07;;;;;;;8.23;3.85;;;;;;;;;;5130798;27;20071;-83
2021/09/06 12:30:38;;;;;;;7.63;4.88;;;;;;;;;;5121505;28;20153;-83
2021/09/06 12:33:06;;;;;;;8.60;4.63;;;;;;;;;;5091727;28;20043;-83
2021/09/06 12:35:35;;;;;;;9.70;5.03;;;;;;;;;;5115289;28;20097;-83
2021/09/06 12:38:04;;;;;;;8.73;5.53;;;;;;;;;;5094070;28;20047;-83
2021/09/06 12:40:32;;;;;;;9.05;6.15;;;;;;;;;;5113475;28;20054;-83
2021/09/06 12:42:59;;;;;;;11.02;6.88;;;;;;;;;;5127214;27;20131;-83
2021/09/06 12:45:35;;;;;;;11.40;6.53;;;;;;;;;;5128003;27;20036;-83
2021/09/06 12:48:03;;;;;;;12.20;6.45;;;;;;;;;;5087033;28;20085;-84
2021/09/06 12:50:30;;;;;;;8.02;5.30;;;;;;;;;;5090255;28;20063;-83
2021/09/06 12:53:00;;;;;;;9.43;5.28;;;;;;;;;;5084704;28;20162;-82
2021/09/06 12:55:27;;;;;;;8.43;4.75;;;;;;;;;;5119063;28;20082;-83
2021/09/06 12:57:54;;;;;;;8.50;4.28;;;;;;;;;;5107547;28;20039;-83
2021/09/06 13:00:21;;;;;;;9.73;3.60;;;;;;;;;;5107720;28;20081;-84
2021/09/06 13:02:47;;;;;;;4.50;2.47;;;;;;;;;;5094609;28;20379;-84
2021/09/06 13:05:15;;;;;;;6.13;2.92;;;;;;;;;;5088300;28;20409;-84
2021/09/06 13:07:45;;;;;;;3.22;2.63;;;;;;;;;;5088942;28;20078;-84
2021/09/06 13:10:15;;;;;;;4.63;3.28;;;;;;;;;;5090127;28;20048;-84
2021/09/06 13:12:44;;;;;;;5.88;3.70;;;;;;;;;;5077640;28;20087;-84
2021/09/06 13:15:11;;;;;;;5.80;3.28;;;;;;;;;;5070715;28;20427;-84
2021/09/06 13:17:38;;;;;;;6.72;3.42;;;;;;;;;;5076561;28;20045;-84
2021/09/06 13:20:06;;;;;;;5.63;3.97;;;;;;;;;;5087767;28;20048;-85
2021/09/06 13:22:34;;;;;;;7.38;3.33;;;;;;;;;;5072400;28;20079;-84
2021/09/06 13:25:00;;;;;;;5.80;3.70;;;;;;;;;;5087993;28;20142;-84
2021/09/06 13:27:27;;;;;;;6.28;4.22;;;;;;;;;;5089449;28;20119;-84
2021/09/06 13:29:54;;;;;;;5.32;3.33;;;;;;;;;;5112249;28;20056;-84
2021/09/06 13:32:24;;;;;;;6.47;3.22;;;;;;;;;;5112464;27;20052;-84
2021/09/06 13:34:51;;;;;;;6.43;4.30;;;;;;;;;;5110068;28;20136;-84
2021/09/06 13:37:18;;;;;;;10.23;3.58;;;;;;;;;;5120327;28;20088;-83
2021/09/06 13:39:47;;;;;;;6.88;3.80;;;;;;;;;;5127528;28;20447;-84
2021/09/06 13:42:13;;;;;;;8.45;3.42;;;;;;;;;;5124872;28;20042;-84
2021/09/06 13:44:40;;;;;;;7.85;4.07;;;;;;;;;;5104124;28;20039;-83
2021/09/06 13:47:07;;;;;;;6.72;4.25;;;;;;;;;;5102586;28;20079;-83
2021/09/06 13:49:34;;;;;;;5.78;3.50;;;;;;;;;;5087358;28;20044;-83
2021/09/06 13:52:01;;;;;;;4.13;2.95;;;;;;;;;;5076934;28;20052;-83
2021/09/06 13:54:28;;;;;;;7.40;3.38;;;;;;;;;;5074456;28;20141;-84
2021/09/06 13:56:55;;;;;;;6.10;2.58;;;;;;;;;;5073776;28;20044;-84
2021/09/06 13:59:25;;;;;;;3.63;2.65;;;;;;;;;;5106519;28;20067;-83
2021/09/06 14:01:53;;;;;;;5.72;3.40;;;;;;;;;;5089560;28;20121;-83
2021/09/06 14:04:21;;;;;;;4.72;3.17;;;;;;;;;;5087522;28;20052;-84
2021/09/06 14:06:49;;;;;;;5.32;3.55;;;;;;;;;;5091539;28;20201;-83
2021/09/06 14:09:16;;;;;;;7.22;3.53;;;;;;;;;;5123431;27;20050;-83
2021/09/06 14:11:44;;;;;;;7.10;3.70;;;;;;;;;;5091249;28;20443;-83
2021/09/06 14:14:15;;;;;;;6.72;4.00;;;;;;;;;;5085033;28;20052;-83
2021/09/06 14:16:42;;;;;;;9.05;3.80;;;;;;;;;;5091082;28;20058;-82
2021/09/06 14:19:09;;;;;;;6.60;3.75;;;;;;;;;;5072788;28;20052;-85
2021/09/06 14:21:52;;;;;;;5.35;3.40;;;;;;;;;;5068882;28;20055;-83
2021/09/06 14:24:22;;;;;;;4.90;2.88;;;;;;;;;;5079786;28;20056;-83
2021/09/06 14:26:52;;;;;;;3.97;2.47;;;;;;;;;;5090871;28;20324;-84
2021/09/06 14:29:19;;;;;;;4.53;3.05;;;;;;;;;;5090201;28;20241;-83
2021/09/06 14:31:48;;;;;;;4.63;2.42;;;;;;;;;;5053987;28;20337;-83
2021/09/06 14:34:25;;;;;;;8.68;2.85;;;;;;;;;;5089958;28;20470;-84
2021/09/06 14:36:52;;;;;;;7.03;3.13;;;;;;;;;;5090634;28;20257;-86
2021/09/06 14:39:18;;;;;;;5.78;3.05;;;;;;;;;;5090695;28;20154;-83
2021/09/06 14:41:46;;;;;;;7.05;3.22;;;;;;;;;;5088551;28;20078;-83
2021/09/06 14:44:16;;;;;;;5.65;3.28;;;;;;;;;;5093454;28;20238;-83
2021/09/06 14:46:44;;;;;;;4.68;3.13;;;;;;;;;;5094282;28;20055;-83
2021/09/06 14:49:11;;;;;;;6.70;3.33;;;;;;;;;;5090224;28;20422;-82
2021/09/06 14:51:41;;;;;;;4.88;3.17;;;;;;;;;;5091977;28;20055;-82
2021/09/06 14:54:07;;;;;;;9.23;3.08;;;;;;;;;;5130486;27;20054;-82
2021/09/06 14:56:35;;;;;;;5.15;2.95;;;;;;;;;;5098050;28;20454;-82
2021/09/06 14:59:02;;;;;;;5.03;3.30;;;;;;;;;;5111854;28;20235;-82
2021/09/06 15:01:29;;;;;;;6.05;3.08;;;;;;;;;;5104405;28;20091;-83
2021/09/06 15:03:58;;;;;;;7.95;3.03;;;;;;;;;;5080243;28;20113;-83
2021/09/06 15:06:26;;;;;;;4.25;2.97;;;;;;;;;;5112713;28;20198;-82